Main page
METAR-TAF:

METAR-TAF

Airports :

Benson Municipal Airport

Benson, Minnesota, United States

latitude: 45-19N, longitude: 095-39W, elevation: 1040 ft

Current weather observation

The report was made 13 minutes ago, at 22:55 UTC
Wind 21 mph from the West/Northwest with gusts up to 24 mph
Temperature 68°F
Humidity 24%
Pressure 29.59 in. Hg
Visibility: 10 miles
Scattered clouds at a height of 9000 ft

METAR: KBBB 222255Z AUTO 30018G21KT 10SM SCT090 20/M01 A2959 RMK AO2

Time: 18:08 (23:08 UTC)


TAF: missing

Weather observations and forecasts of more than 4000 airports (METAR and TAF reports).

The available stations are represented by yellow and red dots on the map.

Hover mouse over dot to see the name of the station.

Then click to see weather observations and forecasts.

To change the map : click on the green buttons with a black cross to zoom in, on the green button with a dash to zoom out, or on the green arrows for adjacent maps.


METAR-TAF: